Overview Statistics Trail Chart Weather Telemetry Raw packets
 

This is the latest recevied weather packets stored in our database for station/object OK2VOP-6. If no packets are shown the sender has not sent any weather packets the latest 10 day(s).

<< 10 11 12 13 14 15 16 >>
Time Temp. Humidity Pressure Rain* Wind** Luminosity Snow
1788361401 26.67° C 13% - 0 mm - - -
1788360196 27.22° C 12% - 0 mm - - -
1788358991 27.22° C 11% - 0 mm - - -
1788357786 26.67° C 11% - 0 mm - - -
1788356581 27.78° C 11% - 0 mm - - -
1788355376 27.78° C 8% - 0 mm - - -
1788354172 29.44° C 7% - 0 mm - - -
1788352967 27.78° C 8% - 0 mm - - -
1788351762 28.33° C 8% - 0 mm - - -
1788350557 26.67° C 12% - 0 mm - - -
1788349352 27.78° C 11% - 0 mm - - -
1788346942 27.22° C 11% - 0 mm - - -
1788345737 26.67° C 13% - 0 mm - - -
1788344533 26.11° C 17% - 0 mm - - -
1788343328 25.56° C 19% - 0 mm - - -
1788342123 25° C 21% - 0 mm - - -
1788340918 24.44° C 22% - 0 mm - - -
1788339713 23.89° C 23% - 0 mm - - -
1788338509 22.78° C 29% - 0 mm - - -
1788337304 22.22° C 33% - 0 mm - - -
1788336099 21.11° C 39% - 0 mm - - -
1788334894 20° C 39% - 0 mm - - -
1788333689 18.89° C 42% - 0 mm - - -
1788332485 17.22° C 45% - 0 mm - - -
1788331280 16.67° C 51% - 0 mm - - -

* Rain latest hour (hover to see other rain measurements)
** Current wind speed in m/s (hover to see current wind gust speed)